sensor_id;sensor_type;location;lat;lon;timestamp;temperature;humidity
4826;DHT22;2427;50.934;6.776;2023-07-13T00:00:23;17.20;99.90
4826;DHT22;2427;50.934;6.776;2023-07-13T00:02:49;17.20;99.90
4826;DHT22;2427;50.934;6.776;2023-07-13T00:05:15;17.20;99.90
4826;DHT22;2427;50.934;6.776;2023-07-13T00:07:40;17.10;99.90
4826;DHT22;2427;50.934;6.776;2023-07-13T00:10:06;17.10;99.90
4826;DHT22;2427;50.934;6.776;2023-07-13T00:12:35;17.00;99.90
4826;DHT22;2427;50.934;6.776;2023-07-13T00:15:15;17.00;99.90
4826;DHT22;2427;50.934;6.776;2023-07-13T00:17:42;17.00;99.90
4826;DHT22;2427;50.934;6.776;2023-07-13T00:20:10;17.00;99.90
4826;DHT22;2427;50.934;6.776;2023-07-13T00:22:36;16.90;99.90
4826;DHT22;2427;50.934;6.776;2023-07-13T00:25:02;16.90;99.90
4826;DHT22;2427;50.934;6.776;2023-07-13T00:27:28;16.90;99.90
4826;DHT22;2427;50.934;6.776;2023-07-13T00:29:55;16.80;99.90
4826;DHT22;2427;50.934;6.776;2023-07-13T00:32:21;16.70;99.90
4826;DHT22;2427;50.934;6.776;2023-07-13T00:34:46;16.60;99.90
4826;DHT22;2427;50.934;6.776;2023-07-13T00:37:12;16.60;99.90
4826;DHT22;2427;50.934;6.776;2023-07-13T00:39:38;16.60;99.90
4826;DHT22;2427;50.934;6.776;2023-07-13T00:42:05;16.50;99.90
4826;DHT22;2427;50.934;6.776;2023-07-13T00:44:31;16.50;99.90
4826;DHT22;2427;50.934;6.776;2023-07-13T00:46:56;16.40;99.90
4826;DHT22;2427;50.934;6.776;2023-07-13T00:49:25;16.40;99.90
4826;DHT22;2427;50.934;6.776;2023-07-13T00:52:00;16.40;99.90
4826;DHT22;2427;50.934;6.776;2023-07-13T00:54:33;16.30;99.90
4826;DHT22;2427;50.934;6.776;2023-07-13T00:57:02;16.20;99.90
4826;DHT22;2427;50.934;6.776;2023-07-13T00:59:29;16.20;99.90
4826;DHT22;2427;50.934;6.776;2023-07-13T01:12:17;15.90;99.90
4826;DHT22;2427;50.934;6.776;2023-07-13T01:14:43;15.80;99.90
4826;DHT22;2427;50.934;6.776;2023-07-13T01:17:12;15.80;99.90
4826;DHT22;2427;50.934;6.776;2023-07-13T01:19:40;15.80;99.90
4826;DHT22;2427;50.934;6.776;2023-07-13T01:22:10;15.90;99.90
4826;DHT22;2427;50.934;6.776;2023-07-13T01:24:37;15.90;99.90
4826;DHT22;2427;50.934;6.776;2023-07-13T01:27:04;15.80;99.90
4826;DHT22;2427;50.934;6.776;2023-07-13T01:29:31;15.80;99.90
4826;DHT22;2427;50.934;6.776;2023-07-13T01:31:57;15.80;99.90
4826;DHT22;2427;50.934;6.776;2023-07-13T01:34:23;15.80;99.90
4826;DHT22;2427;50.934;6.776;2023-07-13T01:36:49;15.80;99.90
4826;DHT22;2427;50.934;6.776;2023-07-13T01:39:14;15.70;99.90
4826;DHT22;2427;50.934;6.776;2023-07-13T01:41:41;15.70;99.90
4826;DHT22;2427;50.934;6.776;2023-07-13T01:44:06;15.70;99.90
4826;DHT22;2427;50.934;6.776;2023-07-13T01:46:32;15.70;99.90
4826;DHT22;2427;50.934;6.776;2023-07-13T01:48:57;15.70;99.90
4826;DHT22;2427;50.934;6.776;2023-07-13T01:51:24;15.70;99.90
4826;DHT22;2427;50.934;6.776;2023-07-13T01:53:49;15.70;99.90
4826;DHT22;2427;50.934;6.776;2023-07-13T01:56:15;15.60;99.90
4826;DHT22;2427;50.934;6.776;2023-07-13T01:58:41;15.60;99.90
4826;DHT22;2427;50.934;6.776;2023-07-13T02:01:06;15.60;99.90
4826;DHT22;2427;50.934;6.776;2023-07-13T02:03:33;15.50;99.90
4826;DHT22;2427;50.934;6.776;2023-07-13T02:05:58;15.60;99.90
4826;DHT22;2427;50.934;6.776;2023-07-13T02:08:24;15.60;99.90
4826;DHT22;2427;50.934;6.776;2023-07-13T02:10:49;15.50;99.90
4826;DHT22;2427;50.934;6.776;2023-07-13T02:13:15;15.50;99.90
4826;DHT22;2427;50.934;6.776;2023-07-13T02:15:40;15.50;99.90
4826;DHT22;2427;50.934;6.776;2023-07-13T02:18:06;15.40;99.90
4826;DHT22;2427;50.934;6.776;2023-07-13T02:20:31;15.40;99.90
4826;DHT22;2427;50.934;6.776;2023-07-13T02:22:57;15.40;99.90
4826;DHT22;2427;50.934;6.776;2023-07-13T02:25:23;15.40;99.90
4826;DHT22;2427;50.934;6.776;2023-07-13T02:27:50;15.40;99.90
4826;DHT22;2427;50.934;6.776;2023-07-13T02:30:16;15.30;99.90
4826;DHT22;2427;50.934;6.776;2023-07-13T02:32:41;15.30;99.90
4826;DHT22;2427;50.934;6.776;2023-07-13T02:35:07;15.30;99.90
4826;DHT22;2427;50.934;6.776;2023-07-13T02:37:33;15.20;99.90
4826;DHT22;2427;50.934;6.776;2023-07-13T02:39:58;15.20;99.90
4826;DHT22;2427;50.934;6.776;2023-07-13T02:42:24;15.20;99.90
4826;DHT22;2427;50.934;6.776;2023-07-13T02:44:49;15.20;99.90
4826;DHT22;2427;50.934;6.776;2023-07-13T02:47:16;15.10;99.90
4826;DHT22;2427;50.934;6.776;2023-07-13T02:49:41;15.10;99.90
4826;DHT22;2427;50.934;6.776;2023-07-13T02:52:07;15.10;99.90
4826;DHT22;2427;50.934;6.776;2023-07-13T02:54:33;15.10;99.90
4826;DHT22;2427;50.934;6.776;2023-07-13T02:56:59;15.00;99.90
4826;DHT22;2427;50.934;6.776;2023-07-13T02:59:24;15.00;99.90
4826;DHT22;2427;50.934;6.776;2023-07-13T03:01:50;14.90;99.90
4826;DHT22;2427;50.934;6.776;2023-07-13T03:04:15;14.90;99.90
4826;DHT22;2427;50.934;6.776;2023-07-13T03:06:44;14.90;99.90
4826;DHT22;2427;50.934;6.776;2023-07-13T03:09:10;14.90;99.90
4826;DHT22;2427;50.934;6.776;2023-07-13T03:11:38;14.80;99.90
4826;DHT22;2427;50.934;6.776;2023-07-13T03:14:03;14.80;99.90
4826;DHT22;2427;50.934;6.776;2023-07-13T03:16:29;14.70;99.90
4826;DHT22;2427;50.934;6.776;2023-07-13T03:18:56;14.80;99.90
4826;DHT22;2427;50.934;6.776;2023-07-13T03:21:21;14.70;99.90
4826;DHT22;2427;50.934;6.776;2023-07-13T03:23:47;14.70;99.90
4826;DHT22;2427;50.934;6.776;2023-07-13T03:26:17;14.60;99.90
4826;DHT22;2427;50.934;6.776;2023-07-13T03:28:43;14.60;99.90
4826;DHT22;2427;50.934;6.776;2023-07-13T03:31:17;14.60;99.90
4826;DHT22;2427;50.934;6.776;2023-07-13T03:33:43;14.60;99.90
4826;DHT22;2427;50.934;6.776;2023-07-13T03:36:13;14.60;99.90
4826;DHT22;2427;50.934;6.776;2023-07-13T03:38:39;14.50;99.90
4826;DHT22;2427;50.934;6.776;2023-07-13T03:41:05;14.50;99.90
4826;DHT22;2427;50.934;6.776;2023-07-13T03:43:31;14.50;99.90
4826;DHT22;2427;50.934;6.776;2023-07-13T03:45:56;14.50;99.90
4826;DHT22;2427;50.934;6.776;2023-07-13T03:48:22;14.50;99.90
4826;DHT22;2427;50.934;6.776;2023-07-13T03:50:48;14.50;99.90
4826;DHT22;2427;50.934;6.776;2023-07-13T03:53:15;14.50;99.90
4826;DHT22;2427;50.934;6.776;2023-07-13T03:55:41;14.50;99.90
4826;DHT22;2427;50.934;6.776;2023-07-13T03:58:32;14.50;99.90
4826;DHT22;2427;50.934;6.776;2023-07-13T04:00:59;14.60;99.90
4826;DHT22;2427;50.934;6.776;2023-07-13T04:03:25;14.60;99.90
4826;DHT22;2427;50.934;6.776;2023-07-13T04:05:56;14.70;99.90
4826;DHT22;2427;50.934;6.776;2023-07-13T04:08:30;14.70;99.90
4826;DHT22;2427;50.934;6.776;2023-07-13T04:10:56;14.70;99.90
4826;DHT22;2427;50.934;6.776;2023-07-13T04:13:22;14.70;99.90
4826;DHT22;2427;50.934;6.776;2023-07-13T04:15:48;14.70;99.90
4826;DHT22;2427;50.934;6.776;2023-07-13T04:18:14;14.70;99.90
4826;DHT22;2427;50.934;6.776;2023-07-13T04:20:39;14.70;99.90
4826;DHT22;2427;50.934;6.776;2023-07-13T04:23:05;14.70;99.90
4826;DHT22;2427;50.934;6.776;2023-07-13T04:25:30;14.80;99.90
4826;DHT22;2427;50.934;6.776;2023-07-13T04:27:56;14.80;99.90
4826;DHT22;2427;50.934;6.776;2023-07-13T04:30:22;14.80;99.90
4826;DHT22;2427;50.934;6.776;2023-07-13T04:32:50;14.90;99.90
4826;DHT22;2427;50.934;6.776;2023-07-13T04:35:18;14.90;99.90
4826;DHT22;2427;50.934;6.776;2023-07-13T04:37:43;14.90;99.90
4826;DHT22;2427;50.934;6.776;2023-07-13T04:40:09;14.90;99.90
4826;DHT22;2427;50.934;6.776;2023-07-13T04:42:38;14.90;99.90
4826;DHT22;2427;50.934;6.776;2023-07-13T04:45:06;15.00;99.90
4826;DHT22;2427;50.934;6.776;2023-07-13T04:47:32;15.10;99.90
4826;DHT22;2427;50.934;6.776;2023-07-13T04:49:57;15.10;99.90
4826;DHT22;2427;50.934;6.776;2023-07-13T04:52:23;15.20;99.90
4826;DHT22;2427;50.934;6.776;2023-07-13T04:54:49;15.10;99.90
4826;DHT22;2427;50.934;6.776;2023-07-13T04:57:14;15.20;99.90
4826;DHT22;2427;50.934;6.776;2023-07-13T04:59:40;15.30;99.90
4826;DHT22;2427;50.934;6.776;2023-07-13T05:02:06;15.30;99.90
4826;DHT22;2427;50.934;6.776;2023-07-13T05:04:31;15.50;99.90
4826;DHT22;2427;50.934;6.776;2023-07-13T05:06:57;15.50;99.90
4826;DHT22;2427;50.934;6.776;2023-07-13T05:09:23;15.70;99.90
4826;DHT22;2427;50.934;6.776;2023-07-13T05:11:48;15.70;99.90
4826;DHT22;2427;50.934;6.776;2023-07-13T05:14:14;15.70;99.90
4826;DHT22;2427;50.934;6.776;2023-07-13T05:16:42;15.80;99.90
4826;DHT22;2427;50.934;6.776;2023-07-13T05:19:08;15.80;99.90
4826;DHT22;2427;50.934;6.776;2023-07-13T05:21:34;15.80;99.90
4826;DHT22;2427;50.934;6.776;2023-07-13T05:24:00;16.00;99.90
4826;DHT22;2427;50.934;6.776;2023-07-13T05:26:25;15.90;99.90
4826;DHT22;2427;50.934;6.776;2023-07-13T05:28:51;16.00;99.90
4826;DHT22;2427;50.934;6.776;2023-07-13T05:31:17;16.10;99.90
4826;DHT22;2427;50.934;6.776;2023-07-13T05:33:42;16.10;99.90
4826;DHT22;2427;50.934;6.776;2023-07-13T05:36:08;16.30;99.90
4826;DHT22;2427;50.934;6.776;2023-07-13T05:38:34;16.50;99.90
4826;DHT22;2427;50.934;6.776;2023-07-13T05:40:59;16.50;99.90
4826;DHT22;2427;50.934;6.776;2023-07-13T05:43:25;16.70;99.90
4826;DHT22;2427;50.934;6.776;2023-07-13T05:45:53;16.80;99.90
4826;DHT22;2427;50.934;6.776;2023-07-13T05:48:19;16.80;99.90
4826;DHT22;2427;50.934;6.776;2023-07-13T05:50:45;16.90;99.90
4826;DHT22;2427;50.934;6.776;2023-07-13T05:53:11;16.90;99.90
4826;DHT22;2427;50.934;6.776;2023-07-13T05:55:41;16.90;99.90
4826;DHT22;2427;50.934;6.776;2023-07-13T05:58:07;16.90;99.90
4826;DHT22;2427;50.934;6.776;2023-07-13T06:00:33;17.00;99.90
4826;DHT22;2427;50.934;6.776;2023-07-13T06:02:59;16.90;99.90
4826;DHT22;2427;50.934;6.776;2023-07-13T06:05:24;16.90;99.90
4826;DHT22;2427;50.934;6.776;2023-07-13T06:07:50;16.90;99.90
4826;DHT22;2427;50.934;6.776;2023-07-13T06:10:15;16.90;99.90
4826;DHT22;2427;50.934;6.776;2023-07-13T06:12:41;16.90;99.90
4826;DHT22;2427;50.934;6.776;2023-07-13T06:15:07;17.00;99.90
4826;DHT22;2427;50.934;6.776;2023-07-13T06:17:33;17.10;99.90
4826;DHT22;2427;50.934;6.776;2023-07-13T06:19:58;17.20;99.90
4826;DHT22;2427;50.934;6.776;2023-07-13T06:22:24;17.10;99.90
4826;DHT22;2427;50.934;6.776;2023-07-13T06:24:49;17.10;99.90
4826;DHT22;2427;50.934;6.776;2023-07-13T06:27:15;17.10;99.90
4826;DHT22;2427;50.934;6.776;2023-07-13T06:29:41;17.20;99.90
4826;DHT22;2427;50.934;6.776;2023-07-13T06:32:10;17.20;99.90
4826;DHT22;2427;50.934;6.776;2023-07-13T06:34:36;17.40;99.90
4826;DHT22;2427;50.934;6.776;2023-07-13T06:37:01;17.40;99.90
4826;DHT22;2427;50.934;6.776;2023-07-13T06:39:27;17.30;99.90
4826;DHT22;2427;50.934;6.776;2023-07-13T06:41:52;17.30;99.90
4826;DHT22;2427;50.934;6.776;2023-07-13T06:44:18;17.40;99.90
4826;DHT22;2427;50.934;6.776;2023-07-13T06:46:44;17.60;99.90
4826;DHT22;2427;50.934;6.776;2023-07-13T06:49:09;17.60;99.90
4826;DHT22;2427;50.934;6.776;2023-07-13T06:51:35;17.60;99.90
4826;DHT22;2427;50.934;6.776;2023-07-13T06:54:00;17.60;99.90
4826;DHT22;2427;50.934;6.776;2023-07-13T06:56:26;17.70;99.90
4826;DHT22;2427;50.934;6.776;2023-07-13T06:58:51;17.70;99.90
4826;DHT22;2427;50.934;6.776;2023-07-13T07:01:17;17.70;99.90
4826;DHT22;2427;50.934;6.776;2023-07-13T07:03:42;17.90;99.90
4826;DHT22;2427;50.934;6.776;2023-07-13T07:06:16;17.90;99.90
4826;DHT22;2427;50.934;6.776;2023-07-13T07:08:43;18.00;99.90
4826;DHT22;2427;50.934;6.776;2023-07-13T07:11:13;17.90;99.90
4826;DHT22;2427;50.934;6.776;2023-07-13T07:13:39;18.00;99.90
4826;DHT22;2427;50.934;6.776;2023-07-13T07:16:04;18.20;99.90
4826;DHT22;2427;50.934;6.776;2023-07-13T07:18:30;18.30;99.90
4826;DHT22;2427;50.934;6.776;2023-07-13T07:20:56;18.60;99.90
4826;DHT22;2427;50.934;6.776;2023-07-13T07:23:22;18.80;99.90
4826;DHT22;2427;50.934;6.776;2023-07-13T07:25:47;18.80;99.90
4826;DHT22;2427;50.934;6.776;2023-07-13T07:28:15;18.70;99.90
4826;DHT22;2427;50.934;6.776;2023-07-13T07:30:47;18.60;99.90
4826;DHT22;2427;50.934;6.776;2023-07-13T07:33:13;18.60;99.90
4826;DHT22;2427;50.934;6.776;2023-07-13T07:35:39;18.70;99.90
4826;DHT22;2427;50.934;6.776;2023-07-13T07:38:05;18.80;99.90
4826;DHT22;2427;50.934;6.776;2023-07-13T07:40:31;19.00;99.90
4826;DHT22;2427;50.934;6.776;2023-07-13T07:42:57;19.00;99.90
4826;DHT22;2427;50.934;6.776;2023-07-13T07:45:23;18.80;99.90
4826;DHT22;2427;50.934;6.776;2023-07-13T07:47:49;18.70;99.90
4826;DHT22;2427;50.934;6.776;2023-07-13T07:50:15;18.80;99.90
4826;DHT22;2427;50.934;6.776;2023-07-13T07:52:40;18.80;99.90
4826;DHT22;2427;50.934;6.776;2023-07-13T07:55:07;18.80;99.90
4826;DHT22;2427;50.934;6.776;2023-07-13T07:57:33;18.70;99.90
4826;DHT22;2427;50.934;6.776;2023-07-13T07:59:58;18.90;99.90
4826;DHT22;2427;50.934;6.776;2023-07-13T08:02:27;18.80;99.90
4826;DHT22;2427;50.934;6.776;2023-07-13T08:04:52;18.90;99.90
4826;DHT22;2427;50.934;6.776;2023-07-13T08:07:18;19.00;99.90
4826;DHT22;2427;50.934;6.776;2023-07-13T08:09:44;19.10;99.90
4826;DHT22;2427;50.934;6.776;2023-07-13T08:12:09;19.00;99.90
4826;DHT22;2427;50.934;6.776;2023-07-13T08:14:35;19.00;99.90
4826;DHT22;2427;50.934;6.776;2023-07-13T08:17:00;19.10;99.90
4826;DHT22;2427;50.934;6.776;2023-07-13T08:19:26;19.30;99.90
4826;DHT22;2427;50.934;6.776;2023-07-13T08:21:52;19.20;99.90
4826;DHT22;2427;50.934;6.776;2023-07-13T08:24:17;19.30;99.90
4826;DHT22;2427;50.934;6.776;2023-07-13T08:26:44;19.40;99.90
4826;DHT22;2427;50.934;6.776;2023-07-13T08:29:11;19.40;99.90
4826;DHT22;2427;50.934;6.776;2023-07-13T08:31:37;19.50;99.90
4826;DHT22;2427;50.934;6.776;2023-07-13T08:34:02;19.60;99.90
4826;DHT22;2427;50.934;6.776;2023-07-13T08:36:29;19.60;99.90
4826;DHT22;2427;50.934;6.776;2023-07-13T08:38:55;19.70;99.90
4826;DHT22;2427;50.934;6.776;2023-07-13T08:41:21;19.80;99.90
4826;DHT22;2427;50.934;6.776;2023-07-13T08:43:57;19.70;99.90
4826;DHT22;2427;50.934;6.776;2023-07-13T08:46:26;19.60;99.90
4826;DHT22;2427;50.934;6.776;2023-07-13T08:51:58;19.60;99.90
4826;DHT22;2427;50.934;6.776;2023-07-13T08:54:32;19.60;99.90
4826;DHT22;2427;50.934;6.776;2023-07-13T08:57:01;19.50;99.90
4826;DHT22;2427;50.934;6.776;2023-07-13T08:59:29;19.50;99.90
4826;DHT22;2427;50.934;6.776;2023-07-13T09:02:29;19.60;99.90
4826;DHT22;2427;50.934;6.776;2023-07-13T09:05:03;19.80;99.90
4826;DHT22;2427;50.934;6.776;2023-07-13T09:07:55;19.70;99.90
4826;DHT22;2427;50.934;6.776;2023-07-13T09:10:31;19.70;99.90
4826;DHT22;2427;50.934;6.776;2023-07-13T09:15:36;19.90;99.90
4826;DHT22;2427;50.934;6.776;2023-07-13T09:20:42;20.00;99.90
4826;DHT22;2427;50.934;6.776;2023-07-13T09:23:16;20.10;99.90
4826;DHT22;2427;50.934;6.776;2023-07-13T09:25:45;20.40;99.90
4826;DHT22;2427;50.934;6.776;2023-07-13T09:28:20;20.50;99.90
4826;DHT22;2427;50.934;6.776;2023-07-13T09:31:23;20.70;99.90
4826;DHT22;2427;50.934;6.776;2023-07-13T09:33:50;20.40;99.90
4826;DHT22;2427;50.934;6.776;2023-07-13T09:36:17;20.60;99.90
4826;DHT22;2427;50.934;6.776;2023-07-13T09:38:44;20.70;99.90
4826;DHT22;2427;50.934;6.776;2023-07-13T09:44:13;21.30;99.90
4826;DHT22;2427;50.934;6.776;2023-07-13T09:46:46;21.60;99.90
4826;DHT22;2427;50.934;6.776;2023-07-13T09:49:17;21.40;99.90
4826;DHT22;2427;50.934;6.776;2023-07-13T09:51:43;21.30;99.90
4826;DHT22;2427;50.934;6.776;2023-07-13T09:54:20;21.30;99.90
4826;DHT22;2427;50.934;6.776;2023-07-13T09:56:46;21.10;99.90
4826;DHT22;2427;50.934;6.776;2023-07-13T09:59:20;20.90;99.90
4826;DHT22;2427;50.934;6.776;2023-07-13T10:01:46;21.00;99.90
4826;DHT22;2427;50.934;6.776;2023-07-13T10:04:14;21.20;99.90
4826;DHT22;2427;50.934;6.776;2023-07-13T10:06:42;21.40;99.90
4826;DHT22;2427;50.934;6.776;2023-07-13T10:09:08;21.40;99.90
4826;DHT22;2427;50.934;6.776;2023-07-13T10:11:35;21.30;99.90
4826;DHT22;2427;50.934;6.776;2023-07-13T10:14:20;21.40;99.90
4826;DHT22;2427;50.934;6.776;2023-07-13T10:16:50;21.40;99.90
4826;DHT22;2427;50.934;6.776;2023-07-13T10:19:19;21.70;99.90
4826;DHT22;2427;50.934;6.776;2023-07-13T10:21:54;21.80;99.90
4826;DHT22;2427;50.934;6.776;2023-07-13T10:24:22;22.10;99.90
4826;DHT22;2427;50.934;6.776;2023-07-13T10:29:26;22.50;99.90
4826;DHT22;2427;50.934;6.776;2023-07-13T10:31:52;22.40;99.90
4826;DHT22;2427;50.934;6.776;2023-07-13T10:34:18;22.70;99.90
4826;DHT22;2427;50.934;6.776;2023-07-13T10:36:46;22.80;99.90
4826;DHT22;2427;50.934;6.776;2023-07-13T10:39:23;23.20;99.90
4826;DHT22;2427;50.934;6.776;2023-07-13T10:41:57;23.40;99.90
4826;DHT22;2427;50.934;6.776;2023-07-13T10:44:27;23.30;99.90
4826;DHT22;2427;50.934;6.776;2023-07-13T10:46:57;22.90;99.90
4826;DHT22;2427;50.934;6.776;2023-07-13T10:49:24;22.80;99.90
4826;DHT22;2427;50.934;6.776;2023-07-13T10:51:52;22.60;99.90
4826;DHT22;2427;50.934;6.776;2023-07-13T10:57:20;22.30;99.90
4826;DHT22;2427;50.934;6.776;2023-07-13T11:02:38;22.30;99.90
4826;DHT22;2427;50.934;6.776;2023-07-13T11:08:03;23.10;99.90
4826;DHT22;2427;50.934;6.776;2023-07-13T11:11:02;23.30;99.90
4826;DHT22;2427;50.934;6.776;2023-07-13T11:16:32;23.30;99.90
4826;DHT22;2427;50.934;6.776;2023-07-13T11:21:28;23.20;99.90
4826;DHT22;2427;50.934;6.776;2023-07-13T11:24:28;22.80;99.90
4826;DHT22;2427;50.934;6.776;2023-07-13T11:26:55;22.70;99.90
4826;DHT22;2427;50.934;6.776;2023-07-13T11:31:54;22.30;99.90
4826;DHT22;2427;50.934;6.776;2023-07-13T11:34:38;22.50;99.90
4826;DHT22;2427;50.934;6.776;2023-07-13T11:37:11;22.70;99.90
4826;DHT22;2427;50.934;6.776;2023-07-13T11:39:40;22.70;99.90
4826;DHT22;2427;50.934;6.776;2023-07-13T11:42:11;22.90;99.90
4826;DHT22;2427;50.934;6.776;2023-07-13T11:44:50;22.80;99.90
4826;DHT22;2427;50.934;6.776;2023-07-13T11:47:19;22.90;99.90
4826;DHT22;2427;50.934;6.776;2023-07-13T11:49:53;23.00;99.90
4826;DHT22;2427;50.934;6.776;2023-07-13T11:52:35;23.30;99.90
4826;DHT22;2427;50.934;6.776;2023-07-13T11:55:04;23.30;99.90
4826;DHT22;2427;50.934;6.776;2023-07-13T11:57:45;23.10;99.90
4826;DHT22;2427;50.934;6.776;2023-07-13T12:00:17;22.90;99.90
4826;DHT22;2427;50.934;6.776;2023-07-13T12:02:47;22.80;99.90
4826;DHT22;2427;50.934;6.776;2023-07-13T12:05:16;22.60;99.90
4826;DHT22;2427;50.934;6.776;2023-07-13T12:07:43;22.50;99.90
4826;DHT22;2427;50.934;6.776;2023-07-13T12:12:36;22.60;99.90
4826;DHT22;2427;50.934;6.776;2023-07-13T12:15:06;22.70;99.90
4826;DHT22;2427;50.934;6.776;2023-07-13T12:17:34;23.00;99.90
4826;DHT22;2427;50.934;6.776;2023-07-13T12:20:03;23.20;99.90
4826;DHT22;2427;50.934;6.776;2023-07-13T12:22:35;23.10;99.90
4826;DHT22;2427;50.934;6.776;2023-07-13T12:25:01;23.60;99.90
4826;DHT22;2427;50.934;6.776;2023-07-13T12:27:27;23.80;99.90
4826;DHT22;2427;50.934;6.776;2023-07-13T12:30:04;23.30;99.90
4826;DHT22;2427;50.934;6.776;2023-07-13T12:32:31;22.80;99.90
4826;DHT22;2427;50.934;6.776;2023-07-13T12:35:03;23.00;99.90
4826;DHT22;2427;50.934;6.776;2023-07-13T12:37:34;23.40;99.90
4826;DHT22;2427;50.934;6.776;2023-07-13T12:40:01;23.80;99.90
4826;DHT22;2427;50.934;6.776;2023-07-13T12:42:32;23.70;99.90
4826;DHT22;2427;50.934;6.776;2023-07-13T12:45:20;23.80;99.90
4826;DHT22;2427;50.934;6.776;2023-07-13T12:47:49;24.10;99.90
4826;DHT22;2427;50.934;6.776;2023-07-13T12:50:20;24.30;99.90
4826;DHT22;2427;50.934;6.776;2023-07-13T12:52:54;24.60;99.90
4826;DHT22;2427;50.934;6.776;2023-07-13T12:55:22;25.00;99.90
4826;DHT22;2427;50.934;6.776;2023-07-13T12:57:51;24.90;99.90
4826;DHT22;2427;50.934;6.776;2023-07-13T13:00:30;24.80;99.90
4826;DHT22;2427;50.934;6.776;2023-07-13T13:03:02;25.00;99.90
4826;DHT22;2427;50.934;6.776;2023-07-13T13:05:30;25.40;99.90
4826;DHT22;2427;50.934;6.776;2023-07-13T13:07:57;25.30;99.90
4826;DHT22;2427;50.934;6.776;2023-07-13T13:10:23;25.40;99.90
4826;DHT22;2427;50.934;6.776;2023-07-13T13:12:49;25.20;99.90
4826;DHT22;2427;50.934;6.776;2023-07-13T13:15:15;25.10;99.90
4826;DHT22;2427;50.934;6.776;2023-07-13T13:17:42;25.30;99.90
4826;DHT22;2427;50.934;6.776;2023-07-13T13:20:16;25.40;99.90
4826;DHT22;2427;50.934;6.776;2023-07-13T13:22:42;25.30;99.90
4826;DHT22;2427;50.934;6.776;2023-07-13T13:25:12;25.80;99.90
4826;DHT22;2427;50.934;6.776;2023-07-13T13:27:39;26.00;99.90
4826;DHT22;2427;50.934;6.776;2023-07-13T13:30:17;25.90;99.90
4826;DHT22;2427;50.934;6.776;2023-07-13T13:32:45;25.70;99.90
4826;DHT22;2427;50.934;6.776;2023-07-13T13:35:19;25.80;99.90
4826;DHT22;2427;50.934;6.776;2023-07-13T13:37:46;25.70;99.90
4826;DHT22;2427;50.934;6.776;2023-07-13T13:40:21;26.10;99.90
4826;DHT22;2427;50.934;6.776;2023-07-13T13:42:48;26.30;99.90
4826;DHT22;2427;50.934;6.776;2023-07-13T13:45:14;25.90;99.00
4826;DHT22;2427;50.934;6.776;2023-07-13T13:47:41;25.80;98.40
4826;DHT22;2427;50.934;6.776;2023-07-13T13:50:21;26.20;99.30
4826;DHT22;2427;50.934;6.776;2023-07-13T13:52:50;25.80;97.40
4826;DHT22;2427;50.934;6.776;2023-07-13T13:55:19;25.60;97.20
4826;DHT22;2427;50.934;6.776;2023-07-13T13:57:46;25.40;96.30
4826;DHT22;2427;50.934;6.776;2023-07-13T14:00:13;24.90;95.90
4826;DHT22;2427;50.934;6.776;2023-07-13T14:02:41;24.80;95.00
4826;DHT22;2427;50.934;6.776;2023-07-13T14:05:11;24.50;95.30
4826;DHT22;2427;50.934;6.776;2023-07-13T14:07:37;25.10;97.80
4826;DHT22;2427;50.934;6.776;2023-07-13T14:10:14;25.60;98.20
4826;DHT22;2427;50.934;6.776;2023-07-13T14:12:41;26.40;99.70
4826;DHT22;2427;50.934;6.776;2023-07-13T14:15:21;26.00;97.10
4826;DHT22;2427;50.934;6.776;2023-07-13T14:17:46;25.70;95.80
4826;DHT22;2427;50.934;6.776;2023-07-13T14:20:16;25.80;96.40
4826;DHT22;2427;50.934;6.776;2023-07-13T14:22:41;26.30;96.70
4826;DHT22;2427;50.934;6.776;2023-07-13T14:25:13;26.40;96.50
4826;DHT22;2427;50.934;6.776;2023-07-13T14:27:41;26.90;96.70
4826;DHT22;2427;50.934;6.776;2023-07-13T14:30:19;27.60;97.00
4826;DHT22;2427;50.934;6.776;2023-07-13T14:32:45;27.30;96.10
4826;DHT22;2427;50.934;6.776;2023-07-13T14:35:12;27.80;96.50
4826;DHT22;2427;50.934;6.776;2023-07-13T14:37:39;27.30;94.40
4826;DHT22;2427;50.934;6.776;2023-07-13T14:40:17;27.00;94.00
4826;DHT22;2427;50.934;6.776;2023-07-13T14:42:44;26.50;92.50
4826;DHT22;2427;50.934;6.776;2023-07-13T14:45:18;27.40;94.90
4826;DHT22;2427;50.934;6.776;2023-07-13T14:47:45;28.30;95.50
4826;DHT22;2427;50.934;6.776;2023-07-13T14:50:14;29.50;95.80
4826;DHT22;2427;50.934;6.776;2023-07-13T14:52:41;30.40;94.20
4826;DHT22;2427;50.934;6.776;2023-07-13T14:55:15;30.20;90.80
4826;DHT22;2427;50.934;6.776;2023-07-13T14:57:41;30.40;88.00
4826;DHT22;2427;50.934;6.776;2023-07-13T15:02:39;29.20;81.10
4826;DHT22;2427;50.934;6.776;2023-07-13T15:05:22;29.60;79.70
4826;DHT22;2427;50.934;6.776;2023-07-13T15:07:50;30.10;92.00
4826;DHT22;2427;50.934;6.776;2023-07-13T15:10:18;30.00;77.10
4826;DHT22;2427;50.934;6.776;2023-07-13T15:12:44;29.20;72.40
4826;DHT22;2427;50.934;6.776;2023-07-13T15:15:10;28.20;83.30
4826;DHT22;2427;50.934;6.776;2023-07-13T15:17:44;27.20;64.30
4826;DHT22;2427;50.934;6.776;2023-07-13T15:20:32;26.20;61.90
4826;DHT22;2427;50.934;6.776;2023-07-13T15:22:58;25.60;62.70
4826;DHT22;2427;50.934;6.776;2023-07-13T15:25:27;25.40;64.10
4826;DHT22;2427;50.934;6.776;2023-07-13T15:27:54;25.20;65.80
4826;DHT22;2427;50.934;6.776;2023-07-13T15:30:21;25.10;66.80
4826;DHT22;2427;50.934;6.776;2023-07-13T15:32:47;24.70;65.80
4826;DHT22;2427;50.934;6.776;2023-07-13T15:35:14;24.50;68.20
4826;DHT22;2427;50.934;6.776;2023-07-13T15:37:41;24.60;70.40
4826;DHT22;2427;50.934;6.776;2023-07-13T15:40:07;24.40;70.90
4826;DHT22;2427;50.934;6.776;2023-07-13T15:42:33;24.30;71.30
4826;DHT22;2427;50.934;6.776;2023-07-13T15:45:01;24.10;73.20
4826;DHT22;2427;50.934;6.776;2023-07-13T15:47:27;23.90;73.50
4826;DHT22;2427;50.934;6.776;2023-07-13T15:49:53;23.60;75.70
4826;DHT22;2427;50.934;6.776;2023-07-13T15:52:22;23.50;77.70
4826;DHT22;2427;50.934;6.776;2023-07-13T15:54:48;23.40;80.40
4826;DHT22;2427;50.934;6.776;2023-07-13T15:57:14;23.20;85.10
4826;DHT22;2427;50.934;6.776;2023-07-13T15:59:41;23.10;88.50
4826;DHT22;2427;50.934;6.776;2023-07-13T16:02:19;22.90;89.10
4826;DHT22;2427;50.934;6.776;2023-07-13T16:04:45;22.70;91.80
4826;DHT22;2427;50.934;6.776;2023-07-13T16:07:12;22.40;91.70
4826;DHT22;2427;50.934;6.776;2023-07-13T16:09:39;22.40;93.10
4826;DHT22;2427;50.934;6.776;2023-07-13T16:12:10;22.30;94.90
4826;DHT22;2427;50.934;6.776;2023-07-13T16:14:37;22.20;95.30
4826;DHT22;2427;50.934;6.776;2023-07-13T16:17:03;22.20;96.70
4826;DHT22;2427;50.934;6.776;2023-07-13T16:19:28;22.30;97.70
4826;DHT22;2427;50.934;6.776;2023-07-13T16:21:54;22.40;98.80
4826;DHT22;2427;50.934;6.776;2023-07-13T16:24:22;22.40;99.50
4826;DHT22;2427;50.934;6.776;2023-07-13T16:26:50;22.30;99.90
4826;DHT22;2427;50.934;6.776;2023-07-13T16:29:19;22.20;99.90
4826;DHT22;2427;50.934;6.776;2023-07-13T16:34:34;22.10;99.90
4826;DHT22;2427;50.934;6.776;2023-07-13T16:37:12;22.00;99.90
4826;DHT22;2427;50.934;6.776;2023-07-13T16:39:41;22.00;99.90
4826;DHT22;2427;50.934;6.776;2023-07-13T16:42:09;21.90;99.90
4826;DHT22;2427;50.934;6.776;2023-07-13T16:44:36;21.90;99.90
4826;DHT22;2427;50.934;6.776;2023-07-13T16:47:05;21.80;99.90
4826;DHT22;2427;50.934;6.776;2023-07-13T16:49:34;21.80;99.90
4826;DHT22;2427;50.934;6.776;2023-07-13T16:52:01;21.90;99.90
4826;DHT22;2427;50.934;6.776;2023-07-13T16:54:31;21.90;99.90
4826;DHT22;2427;50.934;6.776;2023-07-13T16:56:59;22.00;99.90